Time;durP1;ratioP1;P1;durP2;ratioP2;P2;SDS_P1;SDS_P2;PMS_P1;PMS_P2;Temp;Humidity;BMP_temperature;BMP_pressure;BME280_temperature;BME280_humidity;BME280_pressure;Samples;Min_cycle;Max_cycle;Signal;HPM_P1;HPM_P2
2023/04/14 00:02:34;;;;;;;;;;;;;;;26.80;39.62;93436.28;5049779;28;7315;-55
2023/04/14 00:05:11;;;;;;;;;;;;;;;26.82;39.29;93442.00;5016914;28;8968;-55
2023/04/14 00:07:38;;;;;;;;;;;;;;;26.82;39.46;93442.75;5033882;28;7269;-56
2023/04/14 00:10:24;;;;;;;;;;;;;;;26.83;39.46;93443.50;5044655;28;9051;-55
2023/04/14 00:13:02;;;;;;;;;;;;;;;26.80;39.23;93442.53;5050910;28;7040;-55
2023/04/14 00:15:42;;;;;;;;;;;;;;;26.82;39.10;93439.25;5030894;28;8694;-56
2023/04/14 00:18:18;;;;;;;;;;;;;;;26.81;39.79;93438.53;5034029;28;8968;-55
2023/04/14 00:20:46;;;;;;;;;;;;;;;26.78;39.43;93444.38;5038695;28;7435;-55
2023/04/14 00:23:12;;;;;;;;;;;;;;;26.79;39.24;93443.09;5030956;28;8864;-55
2023/04/14 00:25:38;;;;;;;;;;;;;;;26.78;39.51;93445.09;5032611;28;7264;-55
2023/04/14 00:28:04;;;;;;;;;;;;;;;26.77;39.37;93440.13;5028724;28;7295;-56
2023/04/14 00:30:30;;;;;;;;;;;;;;;26.77;39.48;93440.84;5041084;28;7213;-55
2023/04/14 00:32:56;;;;;;;;;;;;;;;26.77;39.09;93446.38;5025075;28;7067;-55
2023/04/14 00:35:23;;;;;;;;;;;;;;;26.77;39.60;93448.41;5090150;28;7559;-55
2023/04/14 00:38:09;;;;;;;;;;;;;;;26.78;39.82;93444.38;5087331;28;7241;-55
2023/04/14 00:40:42;;;;;;;;;;;;;;;26.77;39.66;93448.41;5084596;28;9149;-55
2023/04/14 00:43:32;;;;;;;;;;;;;;;26.76;39.60;93444.16;5093368;28;8661;-56
2023/04/14 00:46:11;;;;;;;;;;;;;;;26.76;39.26;93441.41;5088665;28;7342;-55
2023/04/14 00:48:59;;;;;;;;;;;;;;;26.77;39.42;93445.66;5097595;28;9018;-56
2023/04/14 00:51:27;;;;;;;;;;;;;;;26.75;39.57;93451.69;5088578;28;7280;-55
2023/04/14 00:54:05;;;;;;;;;;;;;;;26.75;39.59;93445.47;5095440;28;9212;-56
2023/04/14 00:56:46;;;;;;;;;;;;;;;26.73;39.72;93443.22;5095564;28;9403;-55
2023/04/14 00:59:51;;;;;;;;;;;;;;;26.72;39.24;93449.25;5091974;28;7033;-55
2023/04/14 01:02:35;;;;;;;;;;;;;;;26.70;39.60;93451.81;5048940;28;7313;-56
2023/04/14 01:05:05;;;;;;;;;;;;;;;26.72;39.32;93452.78;5047736;28;9069;-56
2023/04/14 01:07:51;;;;;;;;;;;;;;;26.72;39.87;93454.78;5041817;28;7525;-55
2023/04/14 01:11:14;;;;;;;;;;;;;;;26.73;39.24;93459.06;5024925;28;7048;-56
2023/04/14 01:17:52;;;;;;;;;;;;;;;26.63;40.12;93463.53;5023420;28;7283;-56
2023/04/14 01:20:57;;;;;;;;;;;;;;;26.63;40.12;93460.78;5027531;28;7432;-56
2023/04/14 01:23:35;;;;;;;;;;;;;;;26.62;39.68;93453.78;5034538;28;7151;-55
2023/04/14 01:26:32;;;;;;;;;;;;;;;26.61;39.70;93463.34;5035577;28;9053;-55
2023/04/14 01:29:46;;;;;;;;;;;;;;;26.61;39.81;93457.81;5049433;28;7249;-56
2023/04/14 01:32:33;;;;;;;;;;;;;;;26.61;39.84;93471.59;5035849;28;8941;-55
2023/04/14 01:35:12;;;;;;;;;;;;;;;26.57;39.79;93468.47;5083787;28;7054;-55
2023/04/14 01:37:48;;;;;;;;;;;;;;;26.55;39.97;93479.28;5107782;28;9341;-55
2023/04/14 01:40:27;;;;;;;;;;;;;;;26.54;40.00;93477.78;5096549;28;7109;-55
2023/04/14 01:43:02;;;;;;;;;;;;;;;26.56;39.93;93472.47;5086236;28;9279;-56
2023/04/14 01:45:55;;;;;;;;;;;;;;;26.57;40.41;93477.47;5087500;28;7313;-55
2023/04/14 01:48:25;;;;;;;;;;;;;;;26.56;39.69;93481.50;5084497;28;9504;-55
2023/04/14 01:51:01;;;;;;;;;;;;;;;26.55;40.15;93485.56;5096070;28;7907;-56
2023/04/14 01:53:39;;;;;;;;;;;;;;;26.52;40.24;93472.81;5089173;28;7158;-55
2023/04/14 01:56:27;;;;;;;;;;;;;;;26.52;39.72;93478.34;5092491;28;7137;-55
2023/04/14 01:59:23;;;;;;;;;;;;;;;26.55;39.80;93479.28;5109359;28;7098;-55
2023/04/14 02:02:28;;;;;;;;;;;;;;;26.51;39.96;93470.63;5090276;28;7037;-55
2023/04/14 02:05:03;;;;;;;;;;;;;;;26.48;40.24;93460.66;5080788;28;8703;-56
2023/04/14 02:07:42;;;;;;;;;;;;;;;26.51;40.06;93471.34;5076923;28;9601;-56
2023/04/14 02:10:23;;;;;;;;;;;;;;;26.50;39.85;93474.63;5093869;28;9315;-56
2023/04/14 02:12:53;;;;;;;;;;;;;;;26.52;39.79;93472.09;5091840;28;9053;-55
2023/04/14 02:15:28;;;;;;;;;;;;;;;26.48;39.90;93466.16;5093462;28;7303;-55
2023/04/14 02:18:09;;;;;;;;;;;;;;;26.48;40.61;93458.63;5092472;28;10172;-55
2023/04/14 02:24:04;;;;;;;;;;;;;;;26.50;39.93;93463.59;5090862;28;9233;-56
2023/04/14 02:27:12;;;;;;;;;;;;;;;26.54;40.11;93464.00;5102646;28;7113;-55
2023/04/14 02:29:57;;;;;;;;;;;;;;;26.57;40.16;93469.19;5047230;28;7226;-56
2023/04/14 02:32:28;;;;;;;;;;;;;;;26.61;40.05;93466.09;5048716;28;7039;-55
2023/04/14 02:35:28;;;;;;;;;;;;;;;26.63;39.59;93466.28;5069463;28;7103;-55
2023/04/14 02:38:07;;;;;;;;;;;;;;;26.60;39.66;93467.38;5010178;28;8905;-55
2023/04/14 02:40:59;;;;;;;;;;;;;;;26.56;39.80;93461.44;5001576;28;7112;-55
2023/04/14 02:43:46;;;;;;;;;;;;;;;26.52;40.25;93463.81;5002015;28;7292;-55
2023/04/14 02:46:31;;;;;;;;;;;;;;;26.48;40.19;93469.66;4998264;28;9041;-55
2023/04/14 02:49:20;;;;;;;;;;;;;;;26.44;40.16;93466.50;5000476;28;8786;-55
2023/04/14 02:52:03;;;;;;;;;;;;;;;26.47;39.93;93470.22;5007841;28;7272;-56
2023/04/14 02:54:42;;;;;;;;;;;;;;;26.48;39.99;93463.41;5004378;28;8943;-55
2023/04/14 02:57:17;;;;;;;;;;;;;;;26.47;40.31;93465.41;4993463;28;7215;-55
2023/04/14 02:59:56;;;;;;;;;;;;;;;26.45;40.25;93461.72;4972746;28;9003;-55
2023/04/14 03:02:24;;;;;;;;;;;;;;;26.47;39.76;93461.94;5008636;28;9161;-55
2023/04/14 03:05:02;;;;;;;;;;;;;;;26.46;40.30;93463.97;5029337;28;9132;-55
2023/04/14 03:07:59;;;;;;;;;;;;;;;26.45;40.57;93467.22;5033890;28;8748;-55
2023/04/14 03:10:37;;;;;;;;;;;;;;;26.44;40.08;93466.50;4993720;28;7130;-55
2023/04/14 03:13:06;;;;;;;;;;;;;;;26.46;40.22;93465.97;5012981;28;7066;-55
2023/04/14 03:16:05;;;;;;;;;;;;;;;26.49;40.06;93462.16;5049250;28;7021;-55
2023/04/14 03:19:00;;;;;;;;;;;;;;;26.47;40.24;93467.47;4947816;29;9457;-55
2023/04/14 03:21:53;;;;;;;;;;;;;;;26.45;40.09;93470.00;4936086;29;7047;-55
2023/04/14 03:24:39;;;;;;;;;;;;;;;26.43;39.79;93467.78;4934857;29;7264;-55
2023/04/14 03:27:15;;;;;;;;;;;;;;;26.41;40.17;93472.34;4951125;29;7172;-55
2023/04/14 03:29:50;;;;;;;;;;;;;;;26.38;40.44;93463.13;4946758;29;9053;-55
2023/04/14 03:32:34;;;;;;;;;;;;;;;26.39;39.90;93469.38;4936286;29;7316;-55
2023/04/14 03:35:22;;;;;;;;;;;;;;;26.37;40.06;93467.19;4935804;29;7276;-55
2023/04/14 03:37:58;;;;;;;;;;;;;;;26.39;40.49;93475.66;4936040;29;9057;-55
2023/04/14 03:40:39;;;;;;;;;;;;;;;26.37;40.61;93478.22;4935611;29;7279;-55
2023/04/14 03:43:18;;;;;;;;;;;;;;;26.36;40.53;93485.00;4934632;29;7029;-55
2023/04/14 03:46:04;;;;;;;;;;;;;;;26.36;40.74;93478.75;4938514;28;7154;-55
2023/04/14 03:48:43;;;;;;;;;;;;;;;26.36;40.31;93484.28;4992789;28;8810;-56
2023/04/14 03:51:26;;;;;;;;;;;;;;;26.38;40.00;93481.72;5011009;28;9472;-55
2023/04/14 03:54:11;;;;;;;;;;;;;;;26.37;40.51;93489.25;5022168;28;9372;-55
2023/04/14 03:56:55;;;;;;;;;;;;;;;26.37;40.21;93494.00;5088556;28;10100;-55
2023/04/14 03:59:40;;;;;;;;;;;;;;;26.39;40.17;93489.44;5097991;28;7033;-55
2023/04/14 04:02:11;;;;;;;;;;;;;;;26.40;40.43;93493.69;5088094;28;7718;-55
2023/04/14 04:04:39;;;;;;;;;;;;;;;26.42;39.81;93495.91;5096362;28;8906;-55
2023/04/14 04:07:18;;;;;;;;;;;;;;;26.40;40.10;93501.22;5093005;28;7057;-55
2023/04/14 04:09:47;;;;;;;;;;;;;;;26.43;40.51;93500.13;5087254;28;8639;-55
2023/04/14 04:12:17;;;;;;;;;;;;;;;26.39;39.80;93497.72;5088530;28;9121;-55
2023/04/14 04:14:47;;;;;;;;;;;;;;;26.39;40.54;93505.97;5091867;28;9147;-55
2023/04/14 04:17:25;;;;;;;;;;;;;;;26.38;40.20;93504.50;5083725;28;7177;-56
2023/04/14 04:19:55;;;;;;;;;;;;;;;26.40;40.49;93503.97;5088652;28;9572;-56
2023/04/14 04:22:27;;;;;;;;;;;;;;;26.37;40.29;93505.03;5081517;28;7269;-55
2023/04/14 04:24:55;;;;;;;;;;;;;;;26.40;40.65;93503.97;5085794;28;7433;-55
2023/04/14 04:27:24;;;;;;;;;;;;;;;26.38;40.50;93501.00;5088881;28;7327;-55
2023/04/14 04:29:51;;;;;;;;;;;;;;;26.37;40.46;93505.03;5085941;28;7118;-55
2023/04/14 04:32:17;;;;;;;;;;;;;;;26.37;41.03;93516.06;5089639;28;7280;-56
2023/04/14 04:34:46;;;;;;;;;;;;;;;26.36;40.01;93506.31;5086508;28;9710;-56
2023/04/14 04:37:13;;;;;;;;;;;;;;;26.35;40.51;93513.84;5087038;28;8645;-55
2023/04/14 04:39:41;;;;;;;;;;;;;;;26.34;40.48;93511.63;5090798;28;8644;-55
2023/04/14 04:42:07;;;;;;;;;;;;;;;26.33;40.70;93510.16;5087743;28;7314;-55
2023/04/14 04:44:34;;;;;;;;;;;;;;;26.33;40.16;93515.66;5088487;28;7054;-56
2023/04/14 04:47:02;;;;;;;;;;;;;;;26.35;40.65;93524.13;5087048;28;9041;-55
2023/04/14 04:49:28;;;;;;;;;;;;;;;26.34;40.61;93514.41;5072746;28;9043;-55
2023/04/14 04:51:58;;;;;;;;;;;;;;;26.32;40.55;93512.16;5090429;28;7276;-55
2023/04/14 04:54:33;;;;;;;;;;;;;;;26.30;40.46;93511.22;5096523;28;9525;-55
2023/04/14 04:57:07;;;;;;;;;;;;;;;26.29;40.73;93518.00;5083333;28;7099;-55
2023/04/14 05:00:29;;;;;;;;;;;;;;;26.28;41.16;93509.00;5105766;28;7041;-55
2023/04/14 05:03:33;;;;;;;;;;;;;;;26.28;40.83;93513.75;5107821;28;7033;-55
2023/04/14 05:05:59;;;;;;;;;;;;;;;26.25;40.74;93510.09;5103946;28;7061;-55
2023/04/14 05:08:31;;;;;;;;;;;;;;;26.26;41.12;93513.56;5091955;28;8121;-55
2023/04/14 05:10:58;;;;;;;;;;;;;;;26.25;40.84;93514.84;5084494;28;9090;-55
2023/04/14 05:13:26;;;;;;;;;;;;;;;26.20;40.87;93513.69;5093363;28;9555;-56
2023/04/14 05:16:12;;;;;;;;;;;;;;;26.25;40.83;93512.09;5092868;28;7241;-56
2023/04/14 05:18:41;;;;;;;;;;;;;;;26.26;40.82;93514.31;5092129;28;9325;-56
2023/04/14 05:21:41;;;;;;;;;;;;;;;26.25;41.29;93525.88;5092241;28;7440;-55
2023/04/14 05:24:14;;;;;;;;;;;;;;;26.24;41.40;93518.88;5084724;28;7044;-56
2023/04/14 05:26:51;;;;;;;;;;;;;;;26.23;41.41;93528.44;5091428;28;7158;-56
2023/04/14 05:29:25;;;;;;;;;;;;;;;26.26;41.33;93524.59;5091197;28;7051;-55
2023/04/14 05:32:04;;;;;;;;;;;;;;;26.25;40.71;93528.63;5091122;28;9020;-55
2023/04/14 05:35:08;;;;;;;;;;;;;;;26.27;41.12;93523.31;5087375;28;8729;-55
2023/04/14 05:37:50;;;;;;;;;;;;;;;26.30;41.65;93527.75;5062228;28;7136;-55
2023/04/14 05:40:19;;;;;;;;;;;;;;;26.39;41.53;93530.06;5057315;28;7640;-56
2023/04/14 05:42:59;;;;;;;;;;;;;;;26.43;40.63;93530.44;5061084;28;9131;-56
2023/04/14 05:45:27;;;;;;;;;;;;;;;26.45;40.17;93528.66;5054569;28;7052;-56
2023/04/14 05:48:26;;;;;;;;;;;;;;;26.50;40.61;93536.06;5066664;28;7100;-56
2023/04/14 05:50:54;;;;;;;;;;;;;;;26.51;40.65;93536.81;4980808;28;7252;-56
2023/04/14 05:53:29;;;;;;;;;;;;;;;26.54;39.95;93535.72;4960880;28;7487;-56
2023/04/14 05:56:04;;;;;;;;;;;;;;;26.53;40.12;93546.03;4971827;28;8974;-55
2023/04/14 05:58:30;;;;;;;;;;;;;;;26.53;39.88;93556.31;4972951;28;7569;-56
2023/04/14 06:00:56;;;;;;;;;;;;;;;26.53;39.60;93556.31;4969807;28;9045;-56
2023/04/14 06:03:24;;;;;;;;;;;;;;;26.50;40.25;93558.13;4965652;28;8694;-56
2023/04/14 06:05:51;;;;;;;;;;;;;;;26.51;39.98;93559.59;4985037;28;7300;-55
2023/04/14 06:08:18;;;;;;;;;;;;;;;26.53;39.71;93559.06;4983811;28;7460;-56
2023/04/14 06:10:46;;;;;;;;;;;;;;;26.50;40.08;93558.13;4965708;28;9521;-56
2023/04/14 06:13:15;;;;;;;;;;;;;;;26.51;39.83;93561.63;4983289;28;9500;-56
2023/04/14 06:15:43;;;;;;;;;;;;;;;26.50;39.74;93551.84;4986564;28;9024;-56
2023/04/14 06:18:09;;;;;;;;;;;;;;;26.54;39.42;93557.78;4984152;28;7637;-56
2023/04/14 06:20:35;;;;;;;;;;;;;;;26.53;39.83;93551.53;4967443;28;8827;-56
2023/04/14 06:23:01;;;;;;;;;;;;;;;26.51;39.99;93556.81;4985673;28;7768;-56
2023/04/14 06:25:32;;;;;;;;;;;;;;;26.56;40.02;93561.47;4969387;28;7389;-56
2023/04/14 06:28:02;;;;;;;;;;;;;;;26.54;39.96;93561.28;5065195;28;7029;-56
2023/04/14 06:30:31;;;;;;;;;;;;;;;26.51;40.45;93564.38;5092878;28;7066;-56
2023/04/14 06:33:02;;;;;;;;;;;;;;;26.51;40.21;93561.63;5076158;28;8000;-56
2023/04/14 06:35:33;;;;;;;;;;;;;;;26.50;40.09;93562.88;5086736;28;7039;-56
2023/04/14 06:38:04;;;;;;;;;;;;;;;26.47;39.97;93553.66;5087893;28;7106;-56
2023/04/14 06:40:30;;;;;;;;;;;;;;;26.46;39.54;93562.47;5106047;28;8954;-56
2023/04/14 06:42:59;;;;;;;;;;;;;;;26.47;39.70;93561.22;5105833;28;7903;-56
2023/04/14 06:45:25;;;;;;;;;;;;;;;26.47;40.13;93553.66;5080315;28;9100;-55
2023/04/14 06:47:53;;;;;;;;;;;;;;;26.43;39.99;93558.03;5083609;28;8947;-56
2023/04/14 06:50:23;;;;;;;;;;;;;;;26.42;40.19;93554.56;5071087;28;7015;-55
2023/04/14 06:52:49;;;;;;;;;;;;;;;26.45;39.99;93558.22;5080248;28;9046;-55
2023/04/14 06:55:20;;;;;;;;;;;;;;;26.50;40.31;93551.84;5083383;28;7249;-56
2023/04/14 06:57:48;;;;;;;;;;;;;;;26.53;40.22;93551.53;5083637;28;7272;-56
2023/04/14 07:00:17;;;;;;;;;;;;;;;26.54;40.04;93544.72;5080075;28;9441;-56
2023/04/14 07:02:43;;;;;;;;;;;;;;;26.51;39.52;93542.31;5096429;28;7028;-56
2023/04/14 07:05:12;;;;;;;;;;;;;;;26.44;39.86;93543.72;5083605;28;7190;-56
2023/04/14 07:07:40;;;;;;;;;;;;;;;26.44;40.07;93540.97;5075770;28;9319;-56
2023/04/14 07:10:13;;;;;;;;;;;;;;;26.45;40.01;93531.41;5086033;28;7102;-56
2023/04/14 07:12:42;;;;;;;;;;;;;;;26.46;39.66;93540.41;5101584;28;7396;-55
2023/04/14 07:15:37;;;;;;;;;;;;;;;26.40;39.55;93535.03;5078841;28;9332;-55
2023/04/14 07:18:05;;;;;;;;;;;;;;;26.43;39.80;93538.72;5099464;28;7306;-56
2023/04/14 07:20:32;;;;;;;;;;;;;;;26.41;39.80;93542.03;5096661;28;7300;-55
2023/04/14 07:22:59;;;;;;;;;;;;;;;26.38;39.98;93531.34;5089292;28;7045;-56
2023/04/14 07:25:41;;;;;;;;;;;;;;;26.39;40.37;93530.78;5077340;28;8985;-56
2023/04/14 07:28:09;;;;;;;;;;;;;;;26.42;39.78;93534.50;5090453;28;9006;-55
2023/04/14 07:30:38;;;;;;;;;;;;;;;26.41;39.96;93530.25;5087510;28;7543;-55
2023/04/14 07:33:07;;;;;;;;;;;;;;;26.41;41.37;93524.72;5092409;28;7457;-55
2023/04/14 07:35:35;;;;;;;;;;;;;;;26.41;41.13;93533.75;5081326;28;7149;-56
2023/04/14 07:38:17;;;;;;;;;;;;;;;26.39;40.77;93530.06;5089856;28;9368;-56
2023/04/14 07:40:43;;;;;;;;;;;;;;;26.37;41.04;93532.59;5093839;28;8739;-56
2023/04/14 07:43:09;;;;;;;;;;;;;;;26.39;40.90;93536.31;5088815;28;8703;-56
2023/04/14 07:45:43;;;;;;;;;;;;;;;26.43;40.36;93536.72;5092624;28;7118;-55
2023/04/14 07:48:34;;;;;;;;;;;;;;;26.45;40.85;93538.94;5095865;28;7646;-56
2023/04/14 07:51:04;;;;;;;;;;;;;;;26.44;40.75;93532.69;5096961;28;7862;-56
2023/04/14 07:53:33;;;;;;;;;;;;;;;26.46;40.53;93532.91;5088425;28;7348;-56
2023/04/14 07:55:59;;;;;;;;;;;;;;;26.45;40.61;93530.66;5084753;28;9257;-56
2023/04/14 07:58:44;;;;;;;;;;;;;;;26.47;40.46;93533.63;5099533;28;9282;-55
2023/04/14 08:01:10;;;;;;;;;;;;;;;26.47;40.70;93537.13;5091672;28;8681;-56
2023/04/14 08:03:40;;;;;;;;;;;;;;;26.46;41.31;93534.91;5088606;28;9501;-55
2023/04/14 08:06:07;;;;;;;;;;;;;;;26.48;40.09;93537.88;5090334;28;7393;-55
2023/04/14 08:08:40;;;;;;;;;;;;;;;26.49;40.14;93533.84;5085663;28;7264;-56
2023/04/14 08:11:15;;;;;;;;;;;;;;;26.49;40.60;93531.81;5091983;28;7219;-55
2023/04/14 08:13:42;;;;;;;;;;;;;;;26.51;40.06;93532.00;5088915;28;7264;-55
2023/04/14 08:16:18;;;;;;;;;;;;;;;26.50;40.81;93527.78;5085438;28;7447;-56
2023/04/14 08:18:44;;;;;;;;;;;;;;;26.54;39.94;93530.19;5091510;28;9089;-56
2023/04/14 08:21:13;;;;;;;;;;;;;;;26.56;40.78;93527.63;5088878;28;9158;-55
2023/04/14 08:23:41;;;;;;;;;;;;;;;26.57;40.37;93527.13;5096212;28;8861;-55
2023/04/14 08:26:07;;;;;;;;;;;;;;;26.59;40.47;93530.06;5094248;28;7248;-56
2023/04/14 08:28:33;;;;;;;;;;;;;;;26.60;40.22;93531.53;5097974;28;8862;-56
2023/04/14 08:31:03;;;;;;;;;;;;;;;26.61;40.47;93530.28;5086302;28;9274;-56
2023/04/14 08:33:29;;;;;;;;;;;;;;;26.64;39.78;93531.22;5087106;28;7025;-55
2023/04/14 08:35:55;;;;;;;;;;;;;;;26.64;40.58;93533.97;5081733;28;7538;-55
2023/04/14 08:38:24;;;;;;;;;;;;;;;26.64;40.04;93525.72;5093543;28;7010;-56
2023/04/14 08:40:55;;;;;;;;;;;;;;;26.67;40.00;93527.38;5097827;28;7087;-56
2023/04/14 08:43:21;;;;;;;;;;;;;;;26.68;40.39;93529.59;5088951;28;9107;-56
2023/04/14 08:45:51;;;;;;;;;;;;;;;26.67;39.71;93532.88;5086778;28;7036;-56
2023/04/14 08:48:35;;;;;;;;;;;;;;;26.67;39.88;93541.16;5092981;28;7064;-55
2023/04/14 08:51:30;;;;;;;;;;;;;;;26.67;39.88;93535.66;5107632;28;9113;-55
2023/04/14 08:54:10;;;;;;;;;;;;;;;26.65;40.53;93535.44;5102955;28;9051;-56
2023/04/14 08:56:41;;;;;;;;;;;;;;;26.67;40.09;93538.41;5078630;28;8968;-55
2023/04/14 08:59:12;;;;;;;;;;;;;;;26.66;40.25;93531.41;5089389;28;9086;-56
2023/04/14 09:01:38;;;;;;;;;;;;;;;26.69;39.68;93530.31;5104318;28;7369;-55
2023/04/14 09:04:08;;;;;;;;;;;;;;;26.70;40.24;93531.81;5080180;28;7361;-55
2023/04/14 09:06:37;;;;;;;;;;;;;;;26.66;40.06;93529.41;5094520;28;7031;-56
2023/04/14 09:09:09;;;;;;;;;;;;;;;26.68;40.54;93524.09;5084993;28;8715;-55
2023/04/14 09:11:36;;;;;;;;;;;;;;;26.71;40.16;93516.75;5100584;28;9087;-55
2023/04/14 09:14:04;;;;;;;;;;;;;;;26.71;40.06;93525.00;5095730;28;7138;-55
2023/04/14 09:16:33;;;;;;;;;;;;;;;26.70;40.31;93516.03;5086879;28;9116;-55
2023/04/14 09:18:59;;;;;;;;;;;;;;;26.70;40.61;93518.03;5083139;28;8068;-55
2023/04/14 09:21:26;;;;;;;;;;;;;;;26.70;39.79;93515.28;5101443;28;7020;-56
2023/04/14 09:23:53;;;;;;;;;;;;;;;26.70;40.13;93515.28;5089606;28;7180;-56
2023/04/14 09:26:19;;;;;;;;;;;;;;;26.70;40.30;93516.03;5076852;28;7130;-56
2023/04/14 09:28:46;;;;;;;;;;;;;;;26.72;40.37;93507.94;5084910;28;8933;-56
2023/04/14 09:31:23;;;;;;;;;;;;;;;26.76;40.28;93519.41;5097836;28;9492;-56
2023/04/14 09:33:49;;;;;;;;;;;;;;;26.78;40.61;93516.09;5079663;28;7036;-56
2023/04/14 09:36:26;;;;;;;;;;;;;;;26.78;40.57;93510.56;5084193;28;9117;-56
2023/04/14 09:38:52;;;;;;;;;;;;;;;26.77;40.29;93512.59;5083358;28;7368;-56
2023/04/14 09:41:24;;;;;;;;;;;;;;;26.81;39.84;93504.00;5080279;28;7306;-56
2023/04/14 09:43:54;;;;;;;;;;;;;;;26.86;40.38;93511.41;5102623;28;9027;-56
2023/04/14 09:46:20;;;;;;;;;;;;;;;26.88;39.87;93503.31;5088524;28;9116;-56
2023/04/14 09:48:58;;;;;;;;;;;;;;;26.90;39.81;93506.28;5085709;28;7257;-56
2023/04/14 09:51:33;;;;;;;;;;;;;;;26.91;39.89;93496.69;5087208;28;7221;-56
2023/04/14 09:54:10;;;;;;;;;;;;;;;26.94;39.85;93506.66;5082223;28;9307;-56
2023/04/14 09:56:36;;;;;;;;;;;;;;;26.93;39.82;93502.41;5085829;28;7305;-56
2023/04/14 09:59:02;;;;;;;;;;;;;;;26.92;39.98;93500.94;5094383;28;9423;-56
2023/04/14 10:01:35;;;;;;;;;;;;;;;26.87;40.00;93497.06;5082953;28;7212;-56
2023/04/14 10:04:23;;;;;;;;;;;;;;;26.92;40.50;93502.97;5085551;28;7255;-56
2023/04/14 10:06:49;;;;;;;;;;;;;;;26.89;40.57;93496.50;5089321;28;9072;-56
2023/04/14 10:09:26;;;;;;;;;;;;;;;26.90;39.91;93501.47;5089483;28;8965;-56
2023/04/14 10:12:11;;;;;;;;;;;;;;;26.91;40.17;93496.69;5078570;28;7269;-57
2023/04/14 10:14:43;;;;;;;;;;;;;;;26.89;40.19;93493.75;5103405;28;7054;-56
2023/04/14 10:17:16;;;;;;;;;;;;;;;26.92;40.50;93492.66;5092284;28;7355;-56
2023/04/14 10:19:44;;;;;;;;;;;;;;;26.89;39.92;93493.75;5088016;28;9061;-56
2023/04/14 10:22:15;;;;;;;;;;;;;;;26.91;40.67;93496.69;5086691;28;9007;-56
2023/04/14 10:24:44;;;;;;;;;;;;;;;26.90;40.84;93489.72;5076933;28;7117;-56
2023/04/14 10:27:15;;;;;;;;;;;;;;;26.90;40.80;93487.69;5088502;28;9466;-56
2023/04/14 10:29:41;;;;;;;;;;;;;;;26.92;40.43;93487.16;5090505;28;9380;-56
2023/04/14 10:32:16;;;;;;;;;;;;;;;26.94;40.73;93478.31;5086941;28;8341;-56
2023/04/14 10:35:19;;;;;;;;;;;;;;;26.94;40.04;93481.81;5097893;28;7220;-56
2023/04/14 10:37:50;;;;;;;;;;;;;;;26.92;40.22;93481.63;5082139;28;8990;-56
2023/04/14 10:40:23;;;;;;;;;;;;;;;26.90;40.45;93470.41;5103823;28;8148;-57
2023/04/14 10:42:53;;;;;;;;;;;;;;;26.89;40.42;93466.16;5087753;28;7626;-57
2023/04/14 10:45:20;;;;;;;;;;;;;;;26.95;39.97;93477.06;5083891;28;7345;-55
2023/04/14 10:47:48;;;;;;;;;;;;;;;26.93;40.11;93455.50;5082070;28;7514;-56
2023/04/14 10:50:20;;;;;;;;;;;;;;;26.93;40.43;93449.97;5085970;28;8925;-56
2023/04/14 10:52:54;;;;;;;;;;;;;;;26.92;40.45;93451.28;5099453;28;8324;-55
2023/04/14 10:55:26;;;;;;;;;;;;;;;26.92;40.14;93448.53;5098064;28;8989;-55
2023/04/14 10:58:04;;;;;;;;;;;;;;;26.95;40.00;93449.47;5085074;28;9096;-55
2023/04/14 11:00:33;;;;;;;;;;;;;;;26.95;40.51;93450.19;5081647;28;9201;-55
2023/04/14 11:03:11;;;;;;;;;;;;;;;26.99;40.30;93447.09;5085042;28;7772;-55
2023/04/14 11:05:51;;;;;;;;;;;;;;;27.01;40.56;93441.75;5084717;28;9047;-55
2023/04/14 11:08:26;;;;;;;;;;;;;;;26.99;40.46;93442.28;5086136;28;7023;-55
2023/04/14 11:11:04;;;;;;;;;;;;;;;27.03;39.94;93436.44;5097471;28;8425;-55
2023/04/14 11:13:33;;;;;;;;;;;;;;;27.03;40.47;93430.91;5086789;28;7029;-55
2023/04/14 11:16:04;;;;;;;;;;;;;;;27.08;39.63;93432.81;5070373;28;7261;-55
2023/04/14 11:18:36;;;;;;;;;;;;;;;27.10;39.96;93424.72;5086506;28;7222;-55
2023/04/14 11:21:10;;;;;;;;;;;;;;;27.14;39.64;93420.31;5087949;28;7465;-55
2023/04/14 11:23:39;;;;;;;;;;;;;;;27.17;39.71;93412.94;5097306;28;9088;-55
2023/04/14 11:26:12;;;;;;;;;;;;;;;27.18;40.08;93423.47;5080097;28;7214;-55
2023/04/14 11:28:41;;;;;;;;;;;;;;;27.25;39.43;93419.28;5090570;28;9238;-55
2023/04/14 11:31:10;;;;;;;;;;;;;;;27.27;39.85;93417.44;5104471;28;8690;-55
2023/04/14 11:33:40;;;;;;;;;;;;;;;27.56;39.00;93415.38;5090047;28;9124;-55
2023/04/14 11:36:11;;;;;;;;;;;;;;;27.63;39.06;93409.13;5087556;28;7290;-55
2023/04/14 11:38:40;;;;;;;;;;;;;;;27.59;38.91;93403.97;5098391;28;7158;-55
2023/04/14 11:41:20;;;;;;;;;;;;;;;27.54;39.28;93404.13;5090514;28;8960;-55
2023/04/14 11:43:54;;;;;;;;;;;;;;;27.56;39.12;93399.53;5103829;28;7959;-55
2023/04/14 11:46:21;;;;;;;;;;;;;;;27.61;38.97;93393.13;5085691;28;7306;-55
2023/04/14 11:48:58;;;;;;;;;;;;;;;27.60;38.78;93391.63;5082417;28;8583;-55
2023/04/14 11:51:42;;;;;;;;;;;;;;;27.58;39.04;93385.16;5079455;28;8813;-55
2023/04/14 11:54:11;;;;;;;;;;;;;;;27.54;38.76;93382.03;5105313;28;7083;-55
2023/04/14 11:56:43;;;;;;;;;;;;;;;27.51;38.84;93380.38;5076586;28;9181;-56
2023/04/14 11:59:11;;;;;;;;;;;;;;;27.51;38.80;93385.91;5092007;28;9154;-55
2023/04/14 12:01:38;;;;;;;;;;;;;;;27.52;38.61;93374.28;5082829;28;7781;-55
2023/04/14 12:04:09;;;;;;;;;;;;;;;27.52;38.55;93373.56;5097030;28;7001;-55
2023/04/14 12:06:38;;;;;;;;;;;;;;;27.47;39.16;93377.97;5084497;28;7171;-55
2023/04/14 12:09:18;;;;;;;;;;;;;;;27.42;39.12;93365.06;5090164;28;7292;-55
2023/04/14 12:12:33;;;;;;;;;;;;;;;27.39;39.39;93362.66;5086252;28;7607;-55
2023/04/14 12:15:03;;;;;;;;;;;;;;;27.35;39.38;93363.00;5094235;28;9019;-55
2023/04/14 12:17:36;;;;;;;;;;;;;;;27.32;39.42;93361.31;5107430;28;9246;-55
2023/04/14 12:20:03;;;;;;;;;;;;;;;27.32;39.51;93357.81;5105680;28;9039;-55
2023/04/14 12:22:48;;;;;;;;;;;;;;;27.31;39.32;93362.59;5090675;28;7495;-55
2023/04/14 12:25:16;;;;;;;;;;;;;;;27.29;39.68;93356.91;5091617;28;8789;-55
2023/04/14 12:27:50;;;;;;;;;;;;;;;27.32;39.72;93344.00;5088931;28;9061;-55
2023/04/14 12:30:55;;;;;;;;;;;;;;;27.31;39.82;93335.00;5092485;28;7318;-55
2023/04/14 12:33:51;;;;;;;;;;;;;;;27.35;39.64;93338.16;5049543;28;7098;-55
2023/04/14 12:36:27;;;;;;;;;;;;;;;27.33;39.78;93326.91;4998107;28;7605;-55
2023/04/14 12:38:56;;;;;;;;;;;;;;;27.37;40.09;93324.53;4999210;28;8762;-55
2023/04/14 12:41:29;;;;;;;;;;;;;;;27.39;39.95;93315.69;4992253;28;9557;-55
2023/04/14 12:44:23;;;;;;;;;;;;;;;27.48;39.48;93317.94;4989536;28;7030;-55
2023/04/14 12:47:24;;;;;;;;;;;;;;;27.52;39.31;93318.31;4996378;28;7044;-56
2023/04/14 12:50:27;;;;;;;;;;;;;;;27.56;39.24;93315.91;5012367;28;8468;-56
2023/04/14 12:53:38;;;;;;;;;;;;;;;27.61;39.01;93309.50;5014045;28;7116;-55
2023/04/14 12:56:26;;;;;;;;;;;;;;;27.65;38.84;93309.88;4993220;28;7323;-55
2023/04/14 12:59:02;;;;;;;;;;;;;;;27.66;38.87;93307.84;4998204;28;7874;-56
2023/04/14 13:01:29;;;;;;;;;;;;;;;27.68;38.91;93302.50;4998354;28;9007;-56
2023/04/14 13:04:06;;;;;;;;;;;;;;;27.71;38.86;93298.66;5012015;28;9083;-55
2023/04/14 13:06:41;;;;;;;;;;;;;;;27.72;38.94;93300.13;5010700;28;7528;-56
2023/04/14 13:09:10;;;;;;;;;;;;;;;27.74;38.76;93289.25;5017919;28;7281;-55
2023/04/14 13:11:38;;;;;;;;;;;;;;;27.76;38.77;93290.19;5030435;28;7274;-55
2023/04/14 13:14:04;;;;;;;;;;;;;;;27.75;38.69;93288.72;5085853;28;9653;-56
2023/04/14 13:16:32;;;;;;;;;;;;;;;27.73;38.73;93285.03;5090255;28;8684;-55
2023/04/14 13:19:00;;;;;;;;;;;;;;;27.71;38.74;93282.09;5087855;28;8955;-55
2023/04/14 13:21:26;;;;;;;;;;;;;;;27.72;38.76;93283.53;5089047;28;7304;-55
2023/04/14 13:23:54;;;;;;;;;;;;;;;27.73;38.89;93271.22;5097926;28;7653;-55
2023/04/14 13:26:20;;;;;;;;;;;;;;;27.68;38.74;93266.59;5085336;28;9033;-55
2023/04/14 13:28:48;;;;;;;;;;;;;;;27.70;39.28;93266.78;5087487;28;9124;-56
2023/04/14 13:31:17;;;;;;;;;;;;;;;27.66;39.41;93261.63;5092149;28;9291;-55
2023/04/14 13:33:45;;;;;;;;;;;;;;;27.71;39.05;93262.75;5105283;28;9082;-55
2023/04/14 13:36:11;;;;;;;;;;;;;;;27.71;39.46;93263.44;5103489;28;9088;-55
2023/04/14 13:38:40;;;;;;;;;;;;;;;27.71;39.43;93252.41;5086991;28;7168;-56
2023/04/14 13:41:08;;;;;;;;;;;;;;;27.70;39.18;93244.69;5088893;28;9128;-55
2023/04/14 13:43:37;;;;;;;;;;;;;;;27.71;38.75;93248.94;5092930;28;7117;-55
2023/04/14 13:46:05;;;;;;;;;;;;;;;27.72;39.00;93245.59;5080996;28;7060;-56
2023/04/14 13:48:32;;;;;;;;;;;;;;;27.73;39.34;93241.53;5103318;28;7638;-55